Time;durP1;ratioP1;P1;durP2;ratioP2;P2;SDS_P1;SDS_P2;PMS_P1;PMS_P2;Temp;Humidity;BMP_temperature;BMP_pressure;BME280_temperature;BME280_humidity;BME280_pressure;Samples;Min_cycle;Max_cycle;Signal;HPM_P1;HPM_P2
2021/03/06 00:00:25;;;;;;;15.75;8.32;;;;;;;;;;5079078;28;20399;-62
2021/03/06 00:02:51;;;;;;;18.58;7.80;;;;;;;;;;5080110;28;20028;-61
2021/03/06 00:05:18;;;;;;;21.17;8.10;;;;;;;;;;5075532;28;20717;-62
2021/03/06 00:07:46;;;;;;;24.80;7.57;;;;;;;;;;5072288;28;20135;-62
2021/03/06 00:10:13;;;;;;;17.20;7.32;;;;;;;;;;5077675;28;20697;-62
2021/03/06 00:12:40;;;;;;;19.75;7.32;;;;;;;;;;5076009;28;20503;-61
2021/03/06 00:15:06;;;;;;;20.92;7.10;;;;;;;;;;5075792;28;20093;-62
2021/03/06 00:17:32;;;;;;;18.45;6.78;;;;;;;;;;5078211;28;20095;-62
2021/03/06 00:19:58;;;;;;;20.20;7.85;;;;;;;;;;5071464;28;20044;-62
2021/03/06 00:22:27;;;;;;;19.20;7.65;;;;;;;;;;5054579;28;20522;-62
2021/03/06 00:24:53;;;;;;;13.15;7.28;;;;;;;;;;5072425;28;20036;-62
2021/03/06 00:27:19;;;;;;;21.83;6.00;;;;;;;;;;5079580;28;20414;-62
2021/03/06 00:29:45;;;;;;;21.60;6.75;;;;;;;;;;5077792;28;20143;-62
2021/03/06 00:32:11;;;;;;;26.42;6.32;;;;;;;;;;5082450;28;20491;-62
2021/03/06 00:34:36;;;;;;;17.67;6.35;;;;;;;;;;5072716;28;20086;-62
2021/03/06 00:37:02;;;;;;;23.95;6.72;;;;;;;;;;5078047;28;20058;-62
2021/03/06 00:39:28;;;;;;;16.20;6.13;;;;;;;;;;5080914;28;20044;-62
2021/03/06 00:41:54;;;;;;;21.40;5.85;;;;;;;;;;5078512;28;20040;-62
2021/03/06 00:44:20;;;;;;;24.58;6.85;;;;;;;;;;5076193;28;20041;-62
2021/03/06 00:46:46;;;;;;;13.45;5.65;;;;;;;;;;5077205;28;20062;-62
2021/03/06 00:49:17;;;;;;;17.88;6.10;;;;;;;;;;5075828;28;20032;-62
2021/03/06 00:51:45;;;;;;;15.05;6.03;;;;;;;;;;5075314;28;20470;-62
2021/03/06 00:54:11;;;;;;;15.27;6.18;;;;;;;;;;5074577;28;20492;-62
2021/03/06 00:56:37;;;;;;;21.55;6.05;;;;;;;;;;5074363;28;20040;-61
2021/03/06 00:59:03;;;;;;;22.45;6.00;;;;;;;;;;5073936;28;20135;-62
2021/03/06 01:01:29;;;;;;;14.60;6.20;;;;;;;;;;5077393;28;20531;-63
2021/03/06 01:03:55;;;;;;;15.82;6.10;;;;;;;;;;5080894;28;20119;-62
2021/03/06 01:06:21;;;;;;;18.75;6.68;;;;;;;;;;5074040;28;20044;-62
2021/03/06 01:08:47;;;;;;;13.95;5.43;;;;;;;;;;5074899;28;20101;-62
2021/03/06 01:11:13;;;;;;;12.98;5.20;;;;;;;;;;5082310;28;20060;-62
2021/03/06 01:13:39;;;;;;;11.25;4.43;;;;;;;;;;5082790;28;20449;-62
2021/03/06 01:16:05;;;;;;;12.95;4.80;;;;;;;;;;5079167;28;20045;-61
2021/03/06 01:18:31;;;;;;;12.00;4.70;;;;;;;;;;5082321;28;20119;-63
2021/03/06 01:20:57;;;;;;;14.75;4.03;;;;;;;;;;5071657;28;20047;-62
2021/03/06 01:23:26;;;;;;;17.63;5.15;;;;;;;;;;5078961;28;20044;-62
2021/03/06 01:25:52;;;;;;;20.98;4.63;;;;;;;;;;5059482;28;20040;-62
2021/03/06 01:28:18;;;;;;;11.15;4.35;;;;;;;;;;5079316;28;20495;-62
2021/03/06 01:30:44;;;;;;;21.30;5.07;;;;;;;;;;5076864;28;20024;-62
2021/03/06 01:33:10;;;;;;;12.18;4.38;;;;;;;;;;5082423;28;20395;-62
2021/03/06 01:35:36;;;;;;;18.17;4.78;;;;;;;;;;5084165;28;20036;-62
2021/03/06 01:38:02;;;;;;;12.38;4.53;;;;;;;;;;5080662;28;20047;-62
2021/03/06 01:40:29;;;;;;;23.23;4.53;;;;;;;;;;5081368;28;20032;-63
2021/03/06 01:42:55;;;;;;;12.50;4.47;;;;;;;;;;5077512;28;20038;-62
2021/03/06 01:45:22;;;;;;;17.40;4.18;;;;;;;;;;5080962;28;20028;-62
2021/03/06 01:47:47;;;;;;;17.45;4.72;;;;;;;;;;5082447;28;20044;-63
2021/03/06 01:52:52;;;;;;;22.20;4.95;;;;;;;;;;5667857;22;20683;-64
2021/03/06 01:55:18;;;;;;;19.40;4.47;;;;;;;;;;5061101;28;20043;-63
2021/03/06 01:57:45;;;;;;;18.35;4.68;;;;;;;;;;5041980;28;20035;-62
2021/03/06 02:00:12;;;;;;;21.58;4.68;;;;;;;;;;5056116;28;20044;-62
2021/03/06 02:02:38;;;;;;;12.55;4.72;;;;;;;;;;5050344;28;20468;-63
2021/03/06 10:51:59;;;;;;;6.25;2.30;;;;;;;;;;5056665;28;20031;-63
2021/03/06 10:54:25;;;;;;;3.83;1.75;;;;;;;;;;5040156;28;20044;-63
2021/03/06 10:57:06;;;;;;;4.40;1.30;;;12.10;55.20;;;;;;5062769;28;20037;-62
2021/03/06 10:59:39;;;;;;;7.65;1.67;;;12.60;54.50;;;;;;5067640;28;20056;-62
2021/03/06 11:02:07;;;;;;;11.25;1.50;;;12.70;53.80;;;;;;5064794;28;20066;-62
2021/03/06 11:04:36;;;;;;;4.88;1.50;;;12.80;53.20;;;;;;5057580;28;20051;-63
2021/03/06 11:07:05;;;;;;;8.32;1.35;;;12.80;53.10;;;;;;5062535;28;20040;-63
2021/03/06 11:09:33;;;;;;;5.72;1.27;;;12.80;52.00;;;;;;5068170;28;20093;-62
2021/03/06 11:12:28;;;;;;;3.17;1.30;;;12.80;52.00;;;;;;5067033;28;20489;-65
2021/03/06 11:15:15;;;;;;;2.70;1.48;;;12.60;52.00;;;;;;5066575;28;20040;-64
2021/03/06 11:17:44;;;;;;;9.45;2.03;;;12.50;52.10;;;;;;5081652;28;20474;-63
2021/03/06 11:20:13;;;;;;;6.95;1.73;;;12.40;52.20;;;;;;5048104;28;20094;-63
2021/03/06 11:22:39;;;;;;;13.18;4.15;;;12.30;52.20;;;;;;5058611;28;20163;-62
2021/03/06 11:25:07;;;;;;;15.60;4.43;;;12.10;52.30;;;;;;5056208;28;20393;-63
2021/03/06 11:27:44;;;;;;;7.18;1.92;;;12.00;52.50;;;;;;5060693;28;20613;-64
2021/03/06 11:30:10;;;;;;;5.43;1.20;;;11.80;52.60;;;;;;5067796;28;20122;-64
2021/03/06 11:32:36;;;;;;;3.97;1.10;;;11.60;52.80;;;;;;5065628;28;20036;-64
2021/03/06 11:35:02;;;;;;;6.00;0.90;;;11.30;53.20;;;;;;5051509;28;20079;-65
2021/03/06 11:37:27;;;;;;;2.35;1.00;;;11.20;53.80;;;;;;5052575;28;20441;-64
2021/03/06 11:39:53;;;;;;;7.00;1.15;;;11.10;54.40;;;;;;5050668;28;20063;-64
2021/03/06 11:42:18;;;;;;;3.28;1.10;;;11.00;54.80;;;;;;5060770;28;20040;-64
2021/03/06 11:44:44;;;;;;;3.22;0.93;;;11.10;55.20;;;;;;5064391;28;20055;-65
2021/03/06 11:47:10;;;;;;;3.38;1.30;;;11.10;55.50;;;;;;5047818;28;20029;-64
2021/03/06 11:49:35;;;;;;;4.30;1.10;;;11.20;55.90;;;;;;5046322;28;20063;-65
2021/03/06 11:52:01;;;;;;;2.30;1.02;;;11.30;56.00;;;;;;5044350;28;20059;-64
2021/03/06 11:54:26;;;;;;;3.28;1.20;;;11.40;56.20;;;;;;5047145;28;20036;-65
2021/03/06 11:56:52;;;;;;;4.18;1.20;;;11.50;56.10;;;;;;5068939;28;20115;-64
2021/03/06 11:59:19;;;;;;;4.07;1.30;;;11.50;56.20;;;;;;5067451;28;20083;-65
2021/03/06 12:01:45;;;;;;;7.07;1.63;;;11.60;56.60;;;;;;5068903;28;20033;-65
2021/03/06 12:04:10;;;;;;;4.60;1.50;;;11.70;56.70;;;;;;5072806;28;20055;-65
2021/03/06 12:06:36;;;;;;;4.43;1.40;;;11.90;56.70;;;;;;5073381;28;20028;-65
2021/03/06 12:09:02;;;;;;;1.75;1.30;;;12.00;56.60;;;;;;5068037;28;20677;-65
2021/03/06 12:11:28;;;;;;;3.97;1.55;;;12.10;56.40;;;;;;5051519;28;21254;-65
2021/03/06 12:13:56;;;;;;;4.45;1.80;;;12.10;56.00;;;;;;5061323;28;20037;-66
2021/03/06 12:16:21;;;;;;;5.90;1.60;;;12.10;55.70;;;;;;5071271;28;20032;-65
2021/03/06 12:18:47;;;;;;;2.58;1.55;;;12.00;55.70;;;;;;5071076;28;20063;-65
2021/03/06 12:21:13;;;;;;;5.45;1.85;;;12.00;56.00;;;;;;5068015;28;20483;-65
2021/03/06 12:23:39;;;;;;;6.85;2.40;;;;;;;;;;5075697;27;20502;-65
2021/03/06 12:26:04;;;;;;;5.47;2.00;;;;;;;;;;5062613;28;20542;-65
2021/03/06 12:28:30;;;;;;;4.57;1.63;;;12.00;56.30;;;;;;5053870;28;20051;-66
2021/03/06 12:30:58;;;;;;;4.13;1.75;;;15.10;56.00;;;;;;5049434;28;20116;-66
2021/03/06 12:33:26;;;;;;;2.55;1.77;;;15.90;53.70;;;;;;5047115;28;20072;-66
2021/03/06 12:35:54;;;;;;;4.20;1.27;;;16.30;51.40;;;;;;5048140;28;20601;-66
2021/03/06 12:38:20;;;;;;;3.35;1.02;;;16.30;49.70;;;;;;5078715;28;20190;-66
2021/03/06 12:40:45;;;;;;;6.30;1.55;;;16.00;49.20;;;;;;5051737;28;20029;-66
2021/03/06 12:43:11;;;;;;;2.78;1.35;;;15.60;49.50;;;;;;5051969;28;20479;-65
2021/03/06 12:45:36;;;;;;;4.97;1.85;;;15.40;50.30;;;;;;5055716;28;20043;-65
2021/03/06 12:48:02;;;;;;;2.95;1.40;;;15.30;51.60;;;;;;5069022;28;20036;-66
2021/03/06 12:50:28;;;;;;;6.75;1.50;;;15.50;51.80;;;;;;5060301;28;20082;-66
2021/03/06 12:52:56;;;;;;;4.85;1.40;;;15.70;51.30;;;;;;5048624;28;20068;-66
2021/03/06 12:55:22;;;;;;;4.53;1.65;;;15.70;50.70;;;;;;5062430;28;20072;-66
2021/03/06 12:57:47;;;;;;;2.67;1.10;;;15.60;49.90;;;;;;5067705;28;20467;-66
2021/03/06 13:00:13;;;;;;;2.92;1.00;;;15.30;49.50;;;;;;5051416;28;20045;-65
2021/03/06 13:02:39;;;;;;;2.85;1.20;;;15.00;49.10;;;;;;5051124;28;20041;-65
2021/03/06 13:05:08;;;;;;;1.58;1.00;;;14.70;49.10;;;;;;5049191;28;20143;-65
2021/03/06 13:07:33;;;;;;;2.17;0.88;;;14.40;49.50;;;;;;5060258;27;20051;-66
2021/03/06 13:09:59;;;;;;;1.85;0.77;;;;;;;;;;5084318;28;20074;-66
2021/03/06 13:12:25;;;;;;;2.25;0.98;;;;;;;;;;5076390;28;20107;-66
2021/03/06 13:14:51;;;;;;;2.22;0.65;;;;;;;;;;5073406;27;20040;-66
2021/03/06 13:17:17;;;;;;;0.98;0.70;;;;;;;;;;5066385;28;20033;-66
2021/03/06 13:19:45;;;;;;;2.42;0.80;;;;;;;;;;5074526;28;20058;-65
2021/03/06 13:22:11;;;;;;;1.00;0.90;;;;;;;;;;5065332;28;20042;-65
2021/03/06 13:24:37;;;;;;;3.05;1.08;;;;;;;;;;5083415;28;20036;-64
2021/03/06 13:27:06;;;;;;;4.90;1.65;;;;;;;;;;5067058;27;20042;-65
2021/03/06 13:29:31;;;;;;;2.47;1.02;;;;;;;;;;5049743;28;20112;-65
2021/03/06 13:31:57;;;;;;;4.68;1.40;;;;;;;;;;5045117;28;20040;-65
2021/03/06 13:34:23;;;;;;;3.05;0.95;;;;;;;;;;5048576;28;20144;-64
2021/03/06 13:36:49;;;;;;;2.83;1.42;;;;;;;;;;5071232;28;20047;-64
2021/03/06 13:39:15;;;;;;;4.15;2.50;;;;;;;;;;5067796;28;20491;-65
2021/03/06 13:41:43;;;;;;;4.55;2.00;;;;;;;;;;5060520;28;22224;-64
2021/03/06 13:44:10;;;;;;;1.67;1.20;;;;;;;;;;5048426;28;20114;-64
2021/03/06 13:46:37;;;;;;;2.28;1.20;;;;;;;;;;5055177;28;20143;-64
2021/03/06 13:49:05;;;;;;;3.28;1.23;;;;;;;;;;5054027;28;21308;-64
2021/03/06 13:51:34;;;;;;;7.03;1.65;;;;;;;;;;5047324;28;20118;-64
2021/03/06 13:54:00;;;;;;;3.47;1.55;;;;;;;;;;5070713;28;20046;-66
2021/03/06 13:56:26;;;;;;;2.63;1.33;;;;;;;;;;5074661;28;20028;-64
2021/03/06 13:58:52;;;;;;;5.47;1.60;;;;;;;;;;5070898;28;20033;-64
2021/03/06 14:01:20;;;;;;;3.47;1.88;;;;;;;;;;5059611;28;20813;-64
2021/03/06 14:03:47;;;;;;;4.35;1.70;;;;;;;;;;5049276;28;20040;-64
2021/03/06 14:06:12;;;;;;;5.43;1.58;;;;;;;;;;5049271;28;20037;-64
2021/03/06 14:08:38;;;;;;;5.88;1.75;;;;;;;;;;5041373;28;20147;-64
2021/03/06 14:11:04;;;;;;;3.30;1.60;;;;;;;;;;5046661;28;20040;-64
2021/03/06 14:13:30;;;;;;;5.28;2.00;;;;;;;;;;5056847;28;20040;-65
2021/03/06 14:15:56;;;;;;;3.83;1.55;;;;;;;;;;5064345;28;20037;-64
2021/03/06 14:18:22;;;;;;;4.15;1.50;;;;;;;;;;5053133;28;20209;-64
2021/03/06 14:20:48;;;;;;;3.55;2.03;;;;;;;;;;5072433;28;20090;-64
2021/03/06 14:23:15;;;;;;;3.67;1.70;;;;;;;;;;5068757;28;20043;-64
2021/03/06 14:25:41;;;;;;;3.03;1.23;;;;;;;;;;5048132;28;20033;-64
2021/03/06 14:28:07;;;;;;;3.53;1.20;;;;;;;;;;5045221;28;20054;-65
2021/03/06 14:30:33;;;;;;;4.25;0.95;;;;;;;;;;5045519;28;20132;-64
2021/03/06 14:32:59;;;;;;;3.10;1.25;;;;;;;;;;5046688;28;20186;-64
2021/03/06 14:35:25;;;;;;;1.65;1.15;;;;;;;;;;5060899;28;20036;-64
2021/03/06 14:37:50;;;;;;;4.25;1.30;;;;;;;;;;5067779;28;20599;-64
2021/03/06 14:40:16;;;;;;;4.35;1.40;;;;;;;;;;5070270;28;20179;-64
2021/03/06 14:42:43;;;;;;;3.85;1.45;;;;;;;;;;5067086;28;20483;-63
2021/03/06 14:45:09;;;;;;;3.20;1.48;;;;;;;;;;5061260;28;20036;-64
2021/03/06 14:47:36;;;;;;;4.00;1.40;;;;;;;;;;5060888;28;20044;-63
2021/03/06 14:50:02;;;;;;;9.50;2.33;;;;;;;;;;5058847;28;20408;-63
2021/03/06 14:52:28;;;;;;;3.80;2.70;;;;;;;;;;5062308;28;20036;-64
2021/03/06 14:54:54;;;;;;;4.45;2.58;;;;;;;;;;5063398;28;20055;-64
2021/03/06 14:57:19;;;;;;;3.70;1.90;;;;;;;;;;5073527;28;20035;-64
2021/03/06 14:59:48;;;;;;;2.83;1.70;;;;;;;;;;5060775;28;20067;-64
2021/03/06 15:02:15;;;;;;;3.10;1.63;;;;;;;;;;5056634;28;20635;-64
2021/03/06 15:04:41;;;;;;;2.95;1.50;;;;;;;;;;5054973;28;20089;-64
2021/03/06 15:07:09;;;;;;;2.30;1.77;;;;;;;;;;5065941;28;20040;-64
2021/03/06 15:09:35;;;;;;;3.78;1.67;;;;;;;;;;5066873;28;20044;-64
2021/03/06 15:12:01;;;;;;;3.97;1.40;;;;;;;;;;5066835;28;20060;-64
2021/03/06 15:14:27;;;;;;;2.17;1.60;;;;;;;;;;5053310;28;20120;-64
2021/03/06 15:16:53;;;;;;;4.75;1.48;;;;;;;;;;5044435;28;20036;-64
2021/03/06 15:19:19;;;;;;;6.40;1.98;;;;;;;;;;5042442;28;20040;-64
2021/03/06 15:21:45;;;;;;;6.28;1.92;;;;;;;;;;5042601;28;20593;-65
2021/03/06 15:24:11;;;;;;;5.45;2.83;;;;;;;;;;5042203;28;20120;-64
2021/03/06 15:26:37;;;;;;;5.68;2.50;;;;;;;;;;5040577;28;20032;-64
2021/03/06 15:29:03;;;;;;;4.85;1.90;;;;;;;;;;5042481;28;20025;-64
2021/03/06 15:31:29;;;;;;;3.40;1.55;;;;;;;;;;5047204;28;20029;-64
2021/03/06 15:33:55;;;;;;;6.63;2.15;;;;;;;;;;5061068;28;20082;-64
2021/03/06 15:36:23;;;;;;;5.95;2.15;;;;;;;;;;5041912;28;20040;-64
2021/03/06 15:38:49;;;;;;;3.50;1.60;;;;;;;;;;5044667;28;20128;-63
2021/03/06 15:41:15;;;;;;;7.13;1.98;;;;;;;;;;5062718;28;20036;-64
2021/03/06 15:43:41;;;;;;;6.35;1.63;;;;;;;;;;5067418;28;20044;-64
2021/03/06 15:46:07;;;;;;;4.20;1.48;;;;;;;;;;5063948;28;20687;-63
2021/03/06 15:48:33;;;;;;;4.55;1.92;;;;;;;;;;5065392;28;20127;-64
2021/03/06 15:51:00;;;;;;;5.00;2.25;;;;;;;;;;5064380;28;20043;-64
2021/03/06 15:53:26;;;;;;;8.48;1.75;;;;;;;;;;5056250;28;20040;-64
2021/03/06 15:55:52;;;;;;;9.98;2.70;;;;;;;;;;5041296;28;20090;-64
2021/03/06 15:58:18;;;;;;;13.88;2.95;;;;;;;;;;5043799;28;20102;-64
2021/03/06 16:00:44;;;;;;;7.97;3.03;;;;;;;;;;5047360;28;20040;-64
2021/03/06 16:03:10;;;;;;;8.27;3.10;;;;;;;;;;5044541;28;20037;-63
2021/03/06 16:05:36;;;;;;;7.38;2.65;;;;;;;;;;5059911;28;20040;-64
2021/03/06 16:08:01;;;;;;;8.85;3.08;;;;;;;;;;5064002;28;20036;-64
2021/03/06 16:10:27;;;;;;;13.05;3.13;;;;;;;;;;5055382;28;20082;-63
2021/03/06 16:12:56;;;;;;;10.85;3.05;;;;;;;;;;5045811;28;20049;-64
2021/03/06 16:15:24;;;;;;;7.35;3.10;;;;;;;;;;5049656;28;20056;-64
2021/03/06 16:17:50;;;;;;;8.95;3.70;;;;;;;;;;5047589;28;20664;-65
2021/03/06 16:20:16;;;;;;;8.40;3.60;;;;;;;;;;5062018;28;20048;-64
2021/03/06 16:22:42;;;;;;;13.10;3.92;;;;;;;;;;5069922;28;20046;-64
2021/03/06 16:25:08;;;;;;;10.07;3.75;;;;;;;;;;5067743;28;20116;-64
2021/03/06 16:27:34;;;;;;;12.70;4.20;;;;;;;;;;5057940;28;20108;-64
2021/03/06 16:30:00;;;;;;;12.40;4.30;;;;;;;;;;5065646;28;20060;-65
2021/03/06 16:32:26;;;;;;;8.30;3.28;;;;;;;;;;5060976;28;20124;-64
2021/03/06 16:34:52;;;;;;;10.43;3.55;;;;;;;;;;5070012;28;20483;-64
2021/03/06 16:37:19;;;;;;;12.60;3.70;;;;;;;;;;5065242;28;20036;-64
2021/03/06 16:39:45;;;;;;;15.40;3.70;;;;;;;;;;5060246;28;20040;-64
2021/03/06 16:42:12;;;;;;;6.07;3.75;;;;;;;;;;5051171;28;20029;-65
2021/03/06 16:44:38;;;;;;;13.27;3.75;;;;;;;;;;5057203;28;20044;-65
2021/03/06 16:47:04;;;;;;;6.80;3.42;;;;;;;;;;5047463;28;20993;-64
2021/03/06 16:49:30;;;;;;;9.18;3.78;;;;;;;;;;5050454;28;20028;-64
2021/03/06 16:51:56;;;;;;;10.85;3.42;;;;;;;;;;5048424;28;20291;-63
2021/03/06 16:54:22;;;;;;;8.85;3.75;;;;;;;;;;5054849;28;20036;-64
2021/03/06 16:56:50;;;;;;;7.22;4.10;;;;;;;;;;5068242;28;20032;-63
2021/03/06 16:59:16;;;;;;;15.82;4.53;;;;;;;;;;5052623;28;20522;-63
2021/03/06 17:01:42;;;;;;;12.57;4.53;;;;;;;;;;5063824;28;20827;-64
2021/03/06 17:04:08;;;;;;;18.10;4.60;;;;;;;;;;5044917;28;20032;-64
2021/03/06 17:06:34;;;;;;;10.38;4.78;;;;;;;;;;5045888;28;21175;-64
2021/03/06 17:09:00;;;;;;;12.93;4.32;;;;;;;;;;5047829;28;20517;-64
2021/03/06 17:11:29;;;;;;;13.15;4.65;;;;;;;;;;5052275;28;20055;-63
2021/03/06 17:13:57;;;;;;;11.00;4.70;;;;;;;;;;5044660;28;20033;-64
2021/03/06 17:16:23;;;;;;;12.13;4.70;;;;;;;;;;5047173;28;20474;-64
2021/03/06 17:18:49;;;;;;;9.40;4.60;;;;;;;;;;5046280;28;20533;-64
2021/03/06 17:21:16;;;;;;;11.32;5.07;;;;;;;;;;5048506;28;20028;-65
2021/03/06 17:23:42;;;;;;;8.98;4.43;;;;;;;;;;5040688;28;20033;-64
2021/03/06 17:26:09;;;;;;;8.82;3.97;;;;;;;;;;5073048;27;20032;-63
2021/03/06 17:28:36;;;;;;;9.40;4.38;;;;;;;;;;5047494;28;20071;-64
2021/03/06 17:31:04;;;;;;;10.02;4.00;;;;;;;;;;5048156;28;20108;-64
2021/03/06 17:33:31;;;;;;;13.20;4.45;;;;;;;;;;5046231;28;20048;-64
2021/03/06 17:35:57;;;;;;;9.10;4.30;;;;;;;;;;5056385;28;20253;-64
2021/03/06 17:38:23;;;;;;;11.48;4.05;;;;;;;;;;5046822;28;20051;-64
2021/03/06 17:40:49;;;;;;;10.88;3.92;;;;;;;;;;5044054;28;20271;-64
2021/03/06 17:43:17;;;;;;;13.15;3.97;;;;;;;;;;5048891;28;20397;-64
2021/03/06 17:45:43;;;;;;;9.25;3.58;;;;;;;;;;5064287;28;20051;-63
2021/03/06 17:48:10;;;;;;;8.65;3.28;;;;;;;;;;5061737;28;20041;-63
2021/03/06 17:50:36;;;;;;;7.68;2.97;;;;;;;;;;5063121;28;20040;-63
2021/03/06 17:53:02;;;;;;;5.85;2.80;;;;;;;;;;5051273;28;20395;-64
2021/03/06 17:55:28;;;;;;;10.05;3.08;;;;;;;;;;5055447;28;20048;-64
2021/03/06 17:57:54;;;;;;;5.68;3.00;;;;;;;;;;5045182;28;20039;-64
2021/03/06 18:00:21;;;;;;;6.32;3.22;;;;;;;;;;5051021;28;20040;-63
2021/03/06 18:02:48;;;;;;;5.90;2.85;;;;;;;;;;5040019;28;20045;-64
2021/03/06 18:05:14;;;;;;;9.80;3.58;;;;;;;;;;5043091;28;20036;-63
2021/03/06 18:07:42;;;;;;;9.70;4.15;;;;;;;;;;5040913;28;20055;-64
2021/03/06 18:10:09;;;;;;;18.00;6.53;;;;;;;;;;5045283;28;20040;-63
2021/03/06 18:12:35;;;;;;;32.75;13.20;;;;;;;;;;5035909;28;20684;-62
2021/03/06 18:15:01;;;;;;;37.65;15.48;;;;;;;;;;5041278;28;20047;-64
2021/03/06 18:17:27;;;;;;;22.27;11.50;;;;;;;;;;5042875;28;20350;-65
2021/03/06 18:19:53;;;;;;;19.17;8.35;;;;;;;;;;5043689;28;20032;-64
2021/03/06 18:22:19;;;;;;;15.02;6.78;;;;;;;;;;5038854;28;20033;-64
2021/03/06 18:24:48;;;;;;;13.38;4.30;;;;;;;;;;5045644;28;20519;-63
2021/03/06 18:27:14;;;;;;;7.95;3.88;;;;;;;;;;5043266;28;20047;-64
2021/03/06 18:29:42;;;;;;;5.68;3.20;;;;;;;;;;5047572;28;20509;-64
2021/03/06 18:32:09;;;;;;;11.73;2.92;;;;;;;;;;5044975;28;20169;-64
2021/03/06 18:34:35;;;;;;;11.68;3.25;;;;;;;;;;5044698;28;20613;-64
2021/03/06 18:37:01;;;;;;;14.70;7.38;;;;;;;;;;5046555;28;20032;-65
2021/03/06 18:39:27;;;;;;;16.90;7.03;;;;;;;;;;5041835;28;20037;-63
2021/03/06 18:41:53;;;;;;;15.10;6.10;;;;;;;;;;5046422;28;20101;-63
2021/03/06 18:44:19;;;;;;;17.85;8.65;;;;;;;;;;5055128;28;20066;-63
2021/03/06 18:46:44;;;;;;;17.40;7.68;;;;;;;;;;5062752;28;20091;-63
2021/03/06 18:49:10;;;;;;;21.20;9.00;;;;;;;;;;5061497;28;20036;-64
2021/03/06 18:51:36;;;;;;;24.10;11.23;;;;;;;;;;5059098;28;20036;-64
2021/03/06 18:54:03;;;;;;;11.93;5.43;;;;;;;;;;5065025;28;20032;-64
2021/03/06 18:56:29;;;;;;;9.77;3.95;;;;;;;;;;5083980;27;20040;-66
2021/03/06 18:58:54;;;;;;;8.45;3.55;;;;;;;;;;5064963;28;20073;-64
2021/03/06 19:01:20;;;;;;;7.18;3.53;;;;;;;;;;5048413;28;20092;-63
2021/03/06 19:03:46;;;;;;;6.40;2.92;;;;;;;;;;5041670;28;20036;-64
2021/03/06 19:06:13;;;;;;;7.10;3.35;;;;;;;;;;5058984;28;20032;-64
2021/03/06 19:08:38;;;;;;;9.13;3.03;;;;;;;;;;5063305;28;20048;-64
2021/03/06 19:11:04;;;;;;;6.18;3.10;;;;;;;;;;5067438;28;20040;-63
2021/03/06 19:13:31;;;;;;;10.45;4.20;;;;;;;;;;5065353;28;20108;-64
2021/03/06 19:15:59;;;;;;;7.35;2.88;;;;;;;;;;5056112;28;20578;-63
2021/03/06 19:18:25;;;;;;;11.77;4.70;;;;;;;;;;5058808;28;20620;-63
2021/03/06 19:20:51;;;;;;;16.80;7.32;;;;;;;;;;5068408;28;20036;-64
2021/03/06 19:23:17;;;;;;;13.27;4.07;;;;;;;;;;5069157;28;20653;-64
2021/03/06 19:25:43;;;;;;;9.98;3.70;;;;;;;;;;5059483;28;20500;-64
2021/03/06 19:28:09;;;;;;;13.98;4.47;;;;;;;;;;5063814;28;20140;-64
2021/03/06 19:30:35;;;;;;;13.80;4.32;;;;;;;;;;5068164;28;20052;-63
2021/03/06 19:33:01;;;;;;;12.13;3.80;;;;;;;;;;5051307;28;20037;-64
2021/03/06 19:35:27;;;;;;;8.43;3.78;;;;;;;;;;5052314;28;20048;-64
2021/03/06 19:37:53;;;;;;;9.15;3.53;;;;;;;;;;5047245;28;20057;-64
2021/03/06 19:40:20;;;;;;;6.95;2.90;;;;;;;;;;5047951;28;20041;-64
2021/03/06 19:42:46;;;;;;;8.05;2.38;;;;;;;;;;5043580;28;20036;-64
2021/03/06 19:45:14;;;;;;;9.25;2.60;;;;;;;;;;5045877;28;20404;-64
2021/03/06 19:47:41;;;;;;;7.43;2.47;;;;;;;;;;5067992;28;20063;-63
2021/03/06 19:50:08;;;;;;;5.80;2.80;;;;;;;;;;5047175;28;20045;-64
2021/03/06 19:52:34;;;;;;;6.38;2.97;;;;;;;;;;5042786;28;20049;-64
2021/03/06 19:55:00;;;;;;;6.13;2.90;;;;;;;;;;5035078;28;20045;-64
2021/03/06 19:57:26;;;;;;;15.50;3.50;;;;;;;;;;5033375;28;20259;-63
2021/03/06 19:59:52;;;;;;;6.03;3.55;;;;;;;;;;5038777;28;20086;-64
2021/03/06 20:02:18;;;;;;;13.07;4.85;;;;;;;;;;5049564;28;20063;-64
2021/03/06 20:04:46;;;;;;;9.48;4.50;;;;;;;;;;5066665;28;20178;-64
2021/03/06 20:07:12;;;;;;;13.57;6.10;;;;;;;;;;5075374;28;20036;-64
2021/03/06 20:09:40;;;;;;;12.23;5.57;;;;;;;;;;5071098;28;20032;-64
2021/03/06 20:12:10;;;;;;;12.15;5.05;;;;;;;;;;5071634;28;20495;-63
2021/03/06 20:14:37;;;;;;;10.05;5.57;;;;;;;;;;5081452;28;20043;-63
2021/03/06 20:17:07;;;;;;;12.10;6.60;;;;;;;;;;5069634;28;20051;-63
2021/03/06 20:19:33;;;;;;;16.00;6.60;;;;;;;;;;5068172;28;20123;-64
2021/03/06 20:22:01;;;;;;;14.45;6.45;;;;;;;;;;5072513;28;20113;-64
2021/03/06 20:24:28;;;;;;;16.85;7.47;;;;;;;;;;5066951;28;20063;-63
2021/03/06 20:26:55;;;;;;;18.90;8.13;;;;;;;;;;5068687;28;20028;-64
2021/03/06 20:29:22;;;;;;;16.13;8.52;;;;;;;;;;5071739;28;20029;-63
2021/03/06 20:31:48;;;;;;;15.23;9.35;;;;;;;;;;5063846;28;20041;-63
2021/03/06 20:34:14;;;;;;;16.17;8.75;;;;;;;;;;5069051;28;20040;-63
2021/03/06 20:36:40;;;;;;;18.23;8.77;;;;;;;;;;5066132;28;20106;-64
2021/03/06 20:39:05;;;;;;;16.00;8.68;;;;;;;;;;5070602;28;20036;-63
2021/03/06 20:41:31;;;;;;;22.60;9.02;;;;;;;;;;5066366;28;20275;-63
2021/03/06 20:43:57;;;;;;;18.58;8.88;;;;;;;;;;5062350;27;20035;-63
2021/03/06 20:46:25;;;;;;;14.65;7.57;;;;;;;;;;5067630;28;20491;-64
2021/03/06 20:48:51;;;;;;;18.13;8.32;;;;;;;;;;5065478;28;20533;-64
2021/03/06 20:51:17;;;;;;;16.27;9.40;;;;;;;;;;5066029;28;20044;-64
2021/03/06 20:53:43;;;;;;;19.55;9.18;;;;;;;;;;5068124;28;20047;-64
2021/03/06 20:56:11;;;;;;;20.92;8.90;;;;;;;;;;5072098;28;20093;-64
2021/03/06 20:58:37;;;;;;;16.55;8.70;;;;;;;;;;5068199;28;20131;-64
2021/03/06 21:01:04;;;;;;;14.57;8.73;;;;;;;;;;5067199;28;20042;-64
2021/03/06 21:03:30;;;;;;;16.98;8.98;;;;;;;;;;5066774;28;20660;-64
2021/03/06 21:05:56;;;;;;;17.30;8.77;;;;;;;;;;5064584;28;20036;-64
2021/03/06 21:08:22;;;;;;;16.50;8.30;;;;;;;;;;5069308;28;20056;-64
2021/03/06 21:10:48;;;;;;;15.90;8.05;;;;;;;;;;5062604;28;20178;-64
2021/03/06 21:13:16;;;;;;;19.10;8.45;;;;;;;;;;5065632;28;20506;-64
2021/03/06 21:15:43;;;;;;;17.63;9.07;;;;;;;;;;5063603;28;20067;-64
2021/03/06 21:18:11;;;;;;;17.02;8.52;;;;;;;;;;5064225;28;20048;-64
2021/03/06 21:20:45;;;;;;;12.75;7.47;;;;;;;;;;5063414;28;20102;-64
2021/03/06 21:23:11;;;;;;;16.45;7.85;;;;;;;;;;5066963;28;20547;-64
2021/03/06 21:25:37;;;;;;;20.13;9.05;;;;;;;;;;5065868;28;20040;-64
2021/03/06 21:28:04;;;;;;;18.05;8.68;;;;;;;;;;5055058;28;20048;-64
2021/03/06 21:30:30;;;;;;;12.90;8.13;;;;;;;;;;5064287;28;20126;-64
2021/03/06 21:32:56;;;;;;;20.73;10.13;;;;;;;;;;5066432;28;20040;-64
2021/03/06 21:35:21;;;;;;;25.52;10.40;;;;;;;;;;5069182;28;20037;-64
2021/03/06 21:37:48;;;;;;;18.52;9.32;;;;;;;;;;5063682;28;20040;-63
2021/03/06 21:40:15;;;;;;;24.80;10.48;;;;;;;;;;5067968;28;20043;-64
2021/03/06 21:42:41;;;;;;;18.00;8.73;;;;;;;;;;5071639;28;20059;-64
2021/03/06 21:45:10;;;;;;;20.38;10.65;;;;;;;;;;5065415;28;20036;-64
2021/03/06 21:47:36;;;;;;;19.48;8.93;;;;;;;;;;5054763;28;20546;-63
2021/03/06 21:50:02;;;;;;;20.15;9.02;;;;;;;;;;5061575;28;20713;-64
2021/03/06 21:52:28;;;;;;;14.70;9.02;;;;;;;;;;5068888;28;20040;-64
2021/03/06 21:54:54;;;;;;;18.13;9.20;;;;;;;;;;5061632;28;20576;-64
2021/03/06 21:57:20;;;;;;;17.83;8.68;;;;;;;;;;5074388;28;20127;-64
2021/03/06 21:59:48;;;;;;;20.13;9.50;;;;;;;;;;5074529;28;20097;-64
2021/03/06 22:02:14;;;;;;;18.05;8.30;;;;;;;;;;5069684;28;20028;-64
2021/03/06 22:04:40;;;;;;;24.52;9.00;;;;;;;;;;5065637;28;20102;-64
2021/03/06 22:07:06;;;;;;;20.10;8.20;;;;;;;;;;5072261;28;20047;-64
2021/03/06 22:09:32;;;;;;;19.77;8.90;;;;;;;;;;5069836;28;20048;-64
2021/03/06 22:11:58;;;;;;;15.10;8.40;;;;;;;;;;5071393;28;20043;-64
2021/03/06 22:14:24;;;;;;;21.92;9.52;;;;;;;;;;5070069;28;20039;-64
2021/03/06 22:16:50;;;;;;;20.42;9.75;;;;;;;;;;5067658;28;20032;-64
2021/03/06 22:19:16;;;;;;;15.30;8.55;;;;;;;;;;5047469;28;20039;-64
2021/03/06 22:21:42;;;;;;;22.98;8.82;;;;;;;;;;5049644;28;20112;-64
2021/03/06 22:24:08;;;;;;;17.48;8.55;;;;;;;;;;5048774;28;20037;-64
2021/03/06 22:26:33;;;;;;;21.95;9.68;;;;;;;;;;5041924;28;20040;-64
2021/03/06 22:28:59;;;;;;;20.27;10.18;;;;;;;;;;5048866;28;20396;-63
2021/03/06 22:31:25;;;;;;;17.40;10.20;;;;;;;;;;5048129;28;20090;-64
2021/03/06 22:33:51;;;;;;;18.00;9.65;;;;;;;;;;5048176;28;20035;-64
2021/03/06 22:36:17;;;;;;;21.80;8.85;;;;;;;;;;5050929;28;20037;-64
2021/03/06 22:38:43;;;;;;;20.15;8.60;;;;;;;;;;5051185;28;20033;-64
2021/03/06 22:41:09;;;;;;;15.07;8.63;;;;;;;;;;5051464;28;20033;-63
2021/03/06 22:43:37;;;;;;;20.30;8.68;;;;;;;;;;5051154;28;20037;-64
2021/03/06 22:46:03;;;;;;;18.05;7.90;;;;;;;;;;5050652;28;20040;-64
2021/03/06 22:48:29;;;;;;;20.35;8.25;;;;;;;;;;5070844;28;20056;-64
2021/03/06 22:50:55;;;;;;;24.55;7.95;;;;;;;;;;5073954;28;20048;-64
2021/03/06 22:53:21;;;;;;;19.50;8.10;;;;;;;;;;5056436;28;20044;-64
2021/03/06 22:55:47;;;;;;;17.05;8.23;;;;;;;;;;5056506;28;20045;-63
2021/03/06 22:58:15;;;;;;;17.13;8.20;;;;;;;;;;5068385;28;20052;-64
2021/03/06 23:00:50;;;;;;;19.20;8.40;;;;;;;;;;5074234;28;20051;-63